KCXU

Camilla-Mitchell County Airport

Camilla, Georgia, USA
METAR KCXU 161415Z AUTO 00000KT 10SM CLR 05/00 A3032 RMK AO1 T00481001
Observed Flight Rules
Dec-16 @ 14:15 UTC (29 minutes ago) Visual Flight Rules
Wind Visibility Clouds
Calm 10 miles
  • Clear skies
Temperatures Readings
Current 5°C / 41°F
Dewpoint -0°C / 32°F
Humidity 70%
Altimeter 30.32" Hg
Pressure 1027 hPa
Elevation 53
METAR KCXU 161415Z AUTO 00000KT 10SM CLR 05/00 A3032 RMK AO1 T00481001
Observed Flight Rules
Dec-16 @ 14:15 UTC
(29 minutes ago)
VFR
Wind Visibility
Calm 10 miles
Clouds
  • Clear skies
Temperature Dewpoint
5°C / 41°F -0°C / 32°F
Humidity Altimeter Pressure
70% 30.32" Hg 1027 hPa